createdAt,value
2017-10-26T00:03:03.392Z,29.23
2017-10-26T00:08:06.066Z,29.90
2017-10-26T00:13:08.012Z,31.83
2017-10-26T00:18:09.961Z,33.70
2017-10-26T00:23:11.950Z,37.30
2017-10-26T00:28:14.162Z,33.83
2017-10-26T00:33:16.291Z,37.00
2017-10-26T00:38:18.655Z,33.80
2017-10-26T00:43:20.995Z,28.70
2017-10-26T00:48:23.222Z,31.73
2017-10-26T00:53:25.388Z,31.10
2017-10-26T00:58:29.881Z,25.27
2017-10-26T01:03:32.205Z,21.50
2017-10-26T01:08:35.516Z,24.30
2017-10-26T01:13:37.998Z,27.60
2017-10-26T01:18:40.319Z,28.80
2017-10-26T01:23:42.900Z,33.83
2017-10-26T01:28:45.255Z,33.07
2017-10-26T01:33:48.556Z,32.73
2017-10-26T01:38:51.839Z,34.77
2017-10-26T01:43:55.479Z,34.70
2017-10-26T01:48:57.831Z,32.53
2017-10-26T01:54:02.822Z,31.40
2017-10-26T01:59:05.037Z,30.83
2017-10-26T02:04:07.160Z,29.57
2017-10-26T02:09:09.399Z,27.80
2017-10-26T02:14:11.633Z,27.47
2017-10-26T02:19:13.873Z,29.30
2017-10-26T02:24:16.112Z,30.07
2017-10-26T02:35:06.082Z,29.83
2017-10-26T02:40:08.920Z,32.33
2017-10-26T02:45:10.983Z,33.70
2017-10-26T02:50:13.877Z,35.10
2017-10-26T02:55:16.331Z,35.63
2017-10-26T03:00:18.436Z,34.63
2017-10-26T03:05:20.653Z,33.40
2017-10-26T03:10:22.773Z,33.63
2017-10-26T03:15:25.697Z,29.97
2017-10-26T03:20:28.018Z,33.03
2017-10-26T03:25:30.093Z,36.90
2017-10-26T03:30:32.278Z,36.87
2017-10-26T03:35:34.231Z,39.07
2017-10-26T03:40:36.128Z,38.80
2017-10-26T03:45:38.051Z,43.50
2017-10-26T03:50:39.979Z,44.83
2017-10-26T03:55:42.659Z,43.20
2017-10-26T04:00:44.627Z,46.77
2017-10-26T04:05:46.532Z,42.90
2017-10-26T04:10:48.416Z,46.03
2017-10-26T04:15:51.068Z,44.40
2017-10-26T04:20:53.071Z,45.57
2017-10-26T04:25:55.130Z,48.73
2017-10-26T04:30:57.250Z,48.87
2017-10-26T04:36:00.140Z,50.47
2017-10-26T04:41:02.145Z,50.30
2017-10-26T04:46:04.052Z,47.10
2017-10-26T04:51:05.980Z,51.57
2017-10-26T04:56:08.636Z,51.37
2017-10-26T05:01:10.542Z,50.67
2017-10-26T05:06:13.656Z,49.77
2017-10-26T05:11:15.980Z,49.67
2017-10-26T05:16:17.909Z,49.53
2017-10-26T05:21:19.856Z,47.43
2017-10-26T05:26:21.767Z,49.63
2017-10-26T05:31:23.757Z,46.60
2017-10-26T05:36:25.772Z,49.80
2017-10-26T05:41:27.735Z,46.97
2017-10-26T05:46:30.122Z,47.53
2017-10-26T05:51:32.069Z,47.10
2017-10-26T05:56:34.085Z,42.77
2017-10-26T06:01:36.089Z,45.33
2017-10-26T06:06:38.156Z,45.70
2017-10-26T06:11:40.180Z,48.20
2017-10-26T06:16:42.152Z,43.80
2017-10-26T06:21:44.055Z,44.77
2017-10-26T06:26:45.982Z,43.17
2017-10-26T06:31:48.204Z,45.07
2017-10-26T06:36:50.163Z,45.53
2017-10-26T06:41:52.092Z,44.33
2017-10-26T06:46:54.208Z,44.77
2017-10-26T06:51:56.139Z,42.63
2017-10-26T06:57:05.318Z,42.37
2017-10-26T07:02:13.337Z,41.50
2017-10-26T07:07:21.691Z,41.83
2017-10-26T07:12:28.890Z,39.20
2017-10-26T07:17:38.071Z,41.03
2017-10-26T07:22:44.859Z,41.00
2017-10-26T07:27:47.061Z,39.60
2017-10-26T07:32:51.163Z,40.10
2017-10-26T07:37:55.928Z,40.90
2017-10-26T07:42:57.982Z,39.30
2017-10-26T07:48:00.426Z,37.20
2017-10-26T07:53:04.254Z,36.03
2017-10-26T07:58:06.304Z,34.80
2017-10-26T08:03:08.379Z,34.77
2017-10-26T08:08:11.820Z,32.23
2017-10-26T08:13:17.347Z,32.43
2017-10-26T08:18:19.331Z,33.00
2017-10-26T08:23:21.359Z,33.93
2017-10-26T08:28:30.289Z,32.30
2017-10-26T08:33:32.406Z,32.07
2017-10-26T08:38:34.334Z,32.87
2017-10-26T08:43:38.473Z,33.00
2017-10-26T08:48:40.865Z,31.97
2017-10-26T08:53:43.670Z,29.60
2017-10-26T08:58:47.353Z,30.43
2017-10-26T09:03:52.793Z,34.20
2017-10-26T09:08:54.816Z,30.80
2017-10-26T09:13:57.672Z,30.30
2017-10-26T09:19:05.279Z,31.17
2017-10-26T09:24:08.088Z,30.37
2017-10-26T09:29:10.095Z,27.97
2017-10-26T09:34:12.113Z,29.47
2017-10-26T09:39:14.900Z,28.90
2017-10-26T09:44:17.736Z,28.93
2017-10-26T09:49:19.855Z,28.00
2017-10-26T09:54:21.868Z,28.63
2017-10-26T09:59:23.896Z,28.30
2017-10-26T10:04:26.642Z,25.87
2017-10-26T10:09:28.734Z,25.83
2017-10-26T10:14:30.781Z,27.80
2017-10-26T10:19:32.940Z,29.00
2017-10-26T10:24:35.726Z,28.80
2017-10-26T10:29:38.492Z,30.40
2017-10-26T10:34:40.508Z,31.20
2017-10-26T10:39:42.536Z,30.50
2017-10-26T10:44:44.599Z,32.50
2017-10-26T10:49:47.390Z,32.10
2017-10-26T10:54:49.419Z,31.53
2017-10-26T10:59:58.247Z,31.93
2017-10-26T11:05:03.841Z,33.00
2017-10-26T11:10:11.308Z,32.43
2017-10-26T11:15:15.358Z,32.97
2017-10-26T11:20:18.011Z,33.77
2017-10-26T11:25:20.028Z,32.30
2017-10-26T11:30:22.036Z,30.10
2017-10-26T11:35:24.068Z,29.50
2017-10-26T11:40:26.132Z,29.83
2017-10-26T11:45:28.157Z,27.60
2017-10-26T11:50:30.245Z,29.10
2017-10-26T11:55:32.271Z,26.50
2017-10-26T12:00:34.333Z,25.57
2017-10-26T12:05:37.113Z,27.60
2017-10-26T12:10:39.132Z,25.20
2017-10-26T12:15:41.177Z,25.47
2017-10-26T12:20:43.211Z,26.10
2017-10-26T12:25:45.233Z,23.50
2017-10-26T12:30:47.313Z,25.20
2017-10-26T12:35:49.416Z,21.70
2017-10-26T12:40:51.519Z,22.10
2017-10-26T12:45:53.589Z,22.73
2017-10-26T12:50:55.617Z,20.60
2017-10-26T12:55:58.386Z,20.90
2017-10-26T13:01:00.436Z,20.40
2017-10-26T13:06:03.249Z,20.10
2017-10-26T13:11:05.316Z,22.63
2017-10-26T13:16:07.396Z,20.10
2017-10-26T13:21:09.424Z,19.10
2017-10-26T13:26:11.455Z,19.40
2017-10-26T13:31:13.418Z,19.10
2017-10-26T13:36:15.364Z,20.43
2017-10-26T13:41:17.302Z,20.80
2017-10-26T13:46:20.024Z,19.90
2017-10-26T13:51:23.095Z,19.60
2017-10-26T13:56:25.127Z,18.43
2017-10-26T14:01:27.198Z,16.50
2017-10-26T14:06:29.163Z,17.63
2017-10-26T14:11:31.178Z,16.23
2017-10-26T14:16:33.865Z,15.67
2017-10-26T14:21:35.811Z,16.10
2017-10-26T14:26:38.468Z,16.80
2017-10-26T14:31:40.373Z,16.30
2017-10-26T14:36:42.567Z,14.80
2017-10-26T14:41:44.473Z,13.90
2017-10-26T14:46:46.428Z,14.27
2017-10-26T14:51:49.115Z,14.20
2017-10-26T14:56:51.002Z,15.27
2017-10-26T15:01:52.940Z,15.17
2017-10-26T15:06:55.103Z,14.83
2017-10-26T15:11:58.547Z,15.17
2017-10-26T15:17:01.595Z,14.90
2017-10-26T15:22:03.622Z,14.17
2017-10-26T15:27:05.575Z,14.43
2017-10-26T15:32:08.267Z,14.23
2017-10-26T15:37:10.205Z,14.73
2017-10-26T15:42:12.260Z,14.40
2017-10-26T15:47:14.227Z,15.27
2017-10-26T15:52:16.142Z,16.50
2017-10-26T15:57:18.048Z,13.80
2017-10-26T16:02:19.960Z,14.73
2017-10-26T16:07:22.039Z,14.23
2017-10-26T16:12:25.401Z,14.90
2017-10-26T16:17:27.411Z,14.60
2017-10-26T16:22:29.365Z,13.27
2017-10-26T16:27:32.049Z,13.40
2017-10-26T16:32:33.975Z,13.60
2017-10-26T16:37:36.647Z,13.67
2017-10-26T16:42:38.678Z,15.30
2017-10-26T16:47:40.670Z,15.00
2017-10-26T16:52:42.634Z,15.27
2017-10-26T16:57:45.359Z,14.53
2017-10-26T17:02:47.299Z,14.93
2017-10-26T17:07:49.276Z,15.27
2017-10-26T17:12:51.258Z,16.20
2017-10-26T17:17:53.963Z,18.17
2017-10-26T17:22:55.973Z,17.70
2017-10-26T17:27:58.842Z,17.47
2017-10-26T17:33:01.905Z,17.07
2017-10-26T17:38:03.923Z,16.30
2017-10-26T17:43:11.621Z,15.00
2017-10-26T17:48:13.924Z,14.63
2017-10-26T17:53:21.988Z,14.80
2017-10-26T17:58:27.200Z,15.73
2017-10-26T18:03:29.693Z,15.40
2017-10-26T18:08:33.712Z,14.60
2017-10-26T18:13:37.377Z,14.50
2017-10-26T18:18:39.333Z,13.40
2017-10-26T18:23:41.320Z,15.60
2017-10-26T18:28:47.369Z,13.27
2017-10-26T18:33:49.335Z,12.87
2017-10-26T18:38:51.418Z,11.33
2017-10-26T18:43:54.301Z,9.57
2017-10-26T18:48:56.521Z,9.57
2017-10-26T18:53:58.492Z,7.30
2017-10-26T18:59:01.410Z,8.20
2017-10-26T19:04:03.619Z,6.43
2017-10-26T19:09:05.533Z,7.23
2017-10-26T19:14:08.205Z,6.83
2017-10-26T19:19:10.151Z,6.77
2017-10-26T19:24:12.239Z,7.00
2017-10-26T19:29:14.295Z,7.77
2017-10-26T19:34:16.275Z,5.40
2017-10-26T19:39:18.230Z,6.10
2017-10-26T19:44:24.305Z,6.27
2017-10-26T19:49:26.533Z,6.90
2017-10-26T19:54:29.338Z,6.73
2017-10-26T19:59:32.090Z,6.47
2017-10-26T20:04:34.800Z,7.50
2017-10-26T20:09:37.536Z,6.20
2017-10-26T20:14:39.509Z,6.60
2017-10-26T20:19:41.448Z,5.70
2017-10-26T20:24:43.361Z,5.27
2017-10-26T20:29:45.289Z,6.87
2017-10-26T20:34:47.984Z,5.50
2017-10-26T20:39:49.971Z,5.60
2017-10-26T20:44:51.906Z,6.83
2017-10-26T20:50:00.054Z,5.80
2017-10-26T20:55:07.894Z,5.30
2017-10-26T21:00:15.910Z,6.07
2017-10-26T21:05:23.806Z,5.40
2017-10-26T21:10:32.577Z,5.70
2017-10-26T21:15:35.234Z,5.90
2017-10-26T21:20:37.151Z,5.10
2017-10-26T21:25:39.098Z,4.73
2017-10-26T21:30:41.055Z,4.50
2017-10-26T21:35:42.955Z,4.20
2017-10-26T21:40:44.954Z,4.50
2017-10-26T21:45:46.953Z,3.77
2017-10-26T21:50:48.899Z,4.73
2017-10-26T21:55:50.818Z,3.83
2017-10-26T22:00:52.760Z,4.57
2017-10-26T22:05:54.725Z,3.60
2017-10-26T22:10:56.669Z,3.30
2017-10-26T22:15:58.666Z,3.60
2017-10-26T22:21:00.596Z,3.97
2017-10-26T22:26:02.562Z,3.63
2017-10-26T22:31:04.510Z,4.83
2017-10-26T22:36:06.448Z,4.57
2017-10-26T22:41:08.420Z,4.13
2017-10-26T22:46:10.347Z,4.20
2017-10-26T22:51:12.304Z,4.03
2017-10-26T22:56:14.256Z,3.53
2017-10-26T23:01:16.225Z,3.80
2017-10-26T23:06:18.141Z,4.07
2017-10-26T23:11:20.102Z,4.07
2017-10-26T23:16:22.083Z,4.37
2017-10-26T23:21:24.092Z,4.43
2017-10-26T23:26:26.792Z,5.03
2017-10-26T23:31:28.674Z,4.60
2017-10-26T23:36:30.600Z,4.80
2017-10-26T23:41:32.534Z,4.37
2017-10-26T23:46:34.476Z,4.80
2017-10-26T23:51:36.474Z,4.10
2017-10-26T23:56:38.410Z,4.20
